Time;durP1;ratioP1;P1;durP2;ratioP2;P2;SDS_P1;SDS_P2;PMS_P1;PMS_P2;Temp;Humidity;BMP_temperature;BMP_pressure;BME280_temperature;BME280_humidity;BME280_pressure;Samples;Min_cycle;Max_cycle;Signal;HPM_P1;HPM_P2
2022/07/20 00:01:33;;;;;;;;;37.75;33.50;;;;;29.18;43.68;101015.50;5059199;28;45278;-72
2022/07/20 00:03:58;;;;;;;;;36.75;31.25;;;;;29.21;43.57;101034.06;5050615;28;46827;-72
2022/07/20 00:06:24;;;;;;;;;37.00;29.67;;;;;29.19;43.83;101031.59;5058576;28;45370;-72
2022/07/20 00:11:33;;;;;;;;;34.67;28.33;;;;;29.13;43.60;101031.97;5059055;28;45351;-72
2022/07/20 00:14:01;;;;;;;;;33.00;30.75;;;;;29.14;43.98;101048.06;5058673;28;46084;-71
2022/07/20 00:16:29;;;;;;;;;40.25;34.50;;;;;30.07;100.00;101094.41;5062467;28;45220;-74
2022/07/20 00:18:54;;;;;;;;;37.33;31.33;;;;;38.55;100.00;101075.22;5048016;28;45514;-74
2022/07/20 00:21:20;;;;;;;;;30.75;29.25;;;;;32.24;90.29;101102.16;5030728;28;45463;-76
2022/07/20 00:23:45;;;;;;;;;38.50;33.25;;;;;30.73;58.49;101060.66;5049809;28;46115;-75
2022/07/20 00:26:11;;;;;;;;;35.00;30.67;;;;;30.14;57.20;101089.38;5064569;28;45352;-74
2022/07/20 00:28:36;;;;;;;;;38.00;33.25;;;;;29.93;56.17;101113.53;5062941;28;45291;-75
2022/07/20 00:31:02;;;;;;;;;39.75;33.75;;;;;29.40;57.48;101107.94;5048345;28;45478;-74
2022/07/20 00:33:27;;;;;;;;;39.25;31.50;;;;;29.20;57.42;101125.44;5044032;28;46389;-74
2022/07/20 00:35:52;;;;;;;;;35.00;31.75;;;;;28.86;57.81;101151.78;5060500;28;48169;-74
2022/07/20 00:38:18;;;;;;;;;38.25;32.75;;;;;28.72;59.78;101136.03;5062531;28;45177;-75
2022/07/20 00:40:43;;;;;;;;;36.00;32.33;;;;;28.56;61.49;101138.13;5061849;28;45304;-74
2022/07/20 00:43:09;;;;;;;;;36.25;31.75;;;;;28.38;61.63;101131.44;5071846;28;45291;-74
2022/07/20 00:45:34;;;;;;;;;35.50;32.25;;;;;28.10;61.53;101128.31;5074323;28;45364;-74
2022/07/20 00:47:59;;;;;;;;;37.25;32.00;;;;;27.98;61.69;101134.97;5074886;28;45474;-74
2022/07/20 00:50:25;;;;;;;;;37.00;32.00;;;;;27.87;62.93;101119.75;5069022;28;44733;-74
2022/07/20 00:52:51;;;;;;;;;40.00;34.50;;;;;27.94;62.69;101094.84;5054338;28;46273;-75
2022/07/20 00:55:16;;;;;;;;;30.00;29.50;;;;;27.84;65.01;101095.75;5037906;28;48043;-75
2022/07/20 00:57:42;;;;;;;;;38.75;33.00;;;;;27.75;63.99;101091.97;5058412;28;45292;-75
2022/07/20 01:00:09;;;;;;;;;41.75;34.00;;;;;27.70;63.99;101093.66;5058823;28;45216;-76
2022/07/20 01:02:35;;;;;;;;;37.50;33.75;;;;;27.58;63.31;101069.41;5041736;28;47409;-74
2022/07/20 01:05:00;;;;;;;;;32.33;30.00;;;;;27.66;62.03;101073.47;5041170;28;47984;-74
2022/07/20 01:07:26;;;;;;;;;35.25;32.75;;;;;27.57;61.37;101059.56;5052110;28;45996;-74
2022/07/20 01:09:51;;;;;;;;;39.50;34.50;;;;;27.59;61.81;101043.72;5046581;28;45331;-75
2022/07/20 01:12:17;;;;;;;;;38.50;33.75;;;;;27.46;62.47;101042.44;5063592;28;45322;-74
2022/07/20 01:14:43;;;;;;;;;40.75;34.00;;;;;27.47;62.93;101000.41;5064443;28;46207;-74
2022/07/20 01:17:08;;;;;;;;;39.75;34.25;;;;;27.39;61.47;100965.56;5062866;28;45242;-75
2022/07/20 01:19:34;;;;;;;;;37.00;33.50;;;;;27.32;62.97;101009.50;5063333;28;45398;-74
2022/07/20 01:22:00;;;;;;;;;38.00;32.25;;;;;27.24;64.22;101045.56;5066849;28;44759;-75
2022/07/20 01:24:25;;;;;;;;;36.50;32.25;;;;;27.12;65.74;101048.63;5064347;28;45309;-74
2022/07/20 01:26:51;;;;;;;;;42.25;34.75;;;;;27.01;66.03;101036.13;5067479;28;45951;-74
2022/07/20 01:29:16;;;;;;;;;37.00;33.25;;;;;26.97;65.84;101033.13;5053586;28;45488;-74
2022/07/20 01:31:42;;;;;;;;;43.25;35.00;;;;;26.91;68.03;101021.41;5062590;28;45438;-75
2022/07/20 01:34:08;;;;;;;;;39.00;32.50;;;;;26.84;67.70;101024.44;5063024;28;46711;-76
2022/07/20 01:36:33;;;;;;;;;48.00;41.25;;;;;26.69;69.35;101029.91;5062704;28;45340;-75
2022/07/20 01:38:58;;;;;;;;;46.00;40.00;;;;;26.54;69.56;101033.50;5066374;28;45359;-75
2022/07/20 01:41:24;;;;;;;;;46.50;38.50;;;;;26.58;69.91;101057.19;5067324;28;45334;-75
2022/07/20 01:43:50;;;;;;;;;47.00;40.25;;;;;26.59;69.08;101075.19;5068085;28;45465;-75
2022/07/20 01:46:15;;;;;;;;;44.25;37.50;;;;;26.63;70.17;101063.75;5036566;28;45619;-75
2022/07/20 01:48:41;;;;;;;;;47.75;40.00;;;;;26.65;70.42;101094.25;5064672;28;45454;-75
2022/07/20 01:51:06;;;;;;;;;53.00;42.00;;;;;26.62;70.42;101101.09;5043876;28;46146;-74
2022/07/20 01:53:32;;;;;;;;;50.00;41.50;;;;;26.53;70.41;101081.75;5061458;28;46285;-75
2022/07/20 01:55:57;;;;;;;;;48.50;40.25;;;;;26.62;71.10;101101.09;5061069;28;45218;-75
2022/07/20 01:58:23;;;;;;;;;49.25;41.50;;;;;26.61;70.93;101107.63;5061291;28;45288;-75
2022/07/20 02:00:49;;;;;;;;;54.25;44.25;;;;;26.59;71.82;101110.63;5054499;28;46106;-75
2022/07/20 02:03:14;;;;;;;;;55.25;44.25;;;;;26.55;72.48;101108.72;5060906;28;46094;-75
2022/07/20 02:05:40;;;;;;;;;53.25;42.50;;;;;26.63;71.78;101116.34;5042625;28;45356;-75
2022/07/20 02:08:05;;;;;;;;;54.25;44.75;;;;;26.61;72.14;101110.34;5060470;28;45256;-75
2022/07/20 02:10:31;;;;;;;;;56.75;46.00;;;;;26.60;72.03;101142.22;5060774;28;45613;-75
2022/07/20 02:12:56;;;;;;;;;55.25;45.50;;;;;26.64;71.96;101158.03;5060316;28;45306;-75
2022/07/20 02:18:07;;;;;;;;;55.00;45.00;;;;;26.60;71.61;101106.81;5058064;28;45281;-76
2022/07/20 02:20:33;;;;;;;;;57.50;46.25;;;;;26.68;70.97;101077.34;5060689;28;45684;-75
2022/07/20 02:22:59;;;;;;;;;58.25;47.25;;;;;26.57;71.14;101073.81;5060399;28;45635;-76
2022/07/20 02:25:25;;;;;;;;;57.50;46.50;;;;;26.52;71.57;101090.19;5060687;28;45835;-75
2022/07/20 02:27:50;;;;;;;;;61.25;49.25;;;;;26.41;72.77;101073.84;5052851;28;45458;-76
2022/07/20 02:30:15;;;;;;;;;59.00;48.00;;;;;26.44;72.55;101106.00;5060237;28;45482;-75
2022/07/20 02:32:41;;;;;;;;;59.25;48.75;;;;;26.43;72.46;101111.72;5060332;28;46151;-76
2022/07/20 02:35:06;;;;;;;;;62.00;50.25;;;;;26.34;73.20;101138.69;5060462;28;45359;-75
2022/07/20 02:37:32;;;;;;;;;62.75;51.25;;;;;26.25;72.56;101154.75;5058271;28;45361;-76
2022/07/20 02:39:57;;;;;;;;;57.75;47.50;;;;;26.21;73.46;101176.25;5041962;28;46010;-75
2022/07/20 02:42:23;;;;;;;;;61.50;49.00;;;;;26.28;73.92;101183.34;5055109;28;47366;-75
2022/07/20 02:44:48;;;;;;;;;63.25;50.50;;;;;26.24;73.97;101155.00;5060278;28;45200;-75
2022/07/20 02:47:13;;;;;;;;;62.50;51.25;;;;;26.18;74.36;101137.81;5060317;28;45207;-75
2022/07/20 02:49:39;;;;;;;;;58.50;47.75;;;;;26.26;72.88;101161.81;5060072;28;45308;-74
2022/07/20 02:52:04;;;;;;;;;64.75;54.00;;;;;26.30;73.72;101176.56;5041612;28;47522;-75
2022/07/20 02:54:29;;;;;;;;;65.25;54.50;;;;;26.28;72.41;101192.31;5041712;28;45349;-74
2022/07/20 02:56:55;;;;;;;;;62.00;50.75;;;;;26.23;73.21;101200.47;5060282;28;45354;-75
2022/07/20 02:59:20;;;;;;;;;65.50;53.50;;;;;26.24;73.02;101210.28;5060470;28;45521;-75
2022/07/20 03:01:45;;;;;;;;;61.50;49.50;;;;;26.14;74.15;101202.09;5053002;28;47089;-76
2022/07/20 03:04:11;;;;;;;;;62.50;51.25;;;;;26.10;73.96;101210.78;5047801;28;45320;-75
2022/07/20 03:06:37;;;;;;;;;63.75;50.75;;;;;26.18;74.08;101233.13;5052711;28;45343;-75
2022/07/20 03:09:02;;;;;;;;;64.00;52.00;;;;;26.15;73.83;101233.69;5046221;28;46315;-75
2022/07/20 03:11:28;;;;;;;;;64.75;54.50;;;;;26.13;74.04;101254.94;5041416;28;45329;-76
2022/07/20 03:13:53;;;;;;;;;65.00;53.25;;;;;26.09;73.24;101281.88;5059796;28;45365;-75
2022/07/20 03:16:18;;;;;;;;;63.25;53.75;;;;;26.09;74.17;101300.94;5063038;28;45476;-76
2022/07/20 03:18:44;;;;;;;;;60.50;49.25;;;;;26.02;74.20;101306.63;5046730;28;46070;-76
2022/07/20 03:21:09;;;;;;;;;64.50;52.75;;;;;25.95;74.55;101290.53;5059462;28;46484;-76
2022/07/20 03:23:34;;;;;;;;;66.00;54.75;;;;;25.92;74.67;101303.88;5059328;28;45428;-76
2022/07/20 03:26:00;;;;;;;;;66.25;55.00;;;;;25.86;75.22;101297.59;5041924;28;45403;-76
2022/07/20 03:28:25;;;;;;;;;64.50;55.25;;;;;25.82;74.85;101291.84;5045345;28;45673;-76
2022/07/20 03:30:50;;;;;;;;;65.00;54.00;;;;;25.83;75.25;101279.06;5059515;28;45304;-76
2022/07/20 03:33:16;;;;;;;;;63.00;52.25;;;;;25.76;75.50;101282.00;5054940;28;46109;-77
2022/07/20 03:35:41;;;;;;;;;65.75;54.25;;;;;25.88;75.86;101308.22;5057687;28;45328;-75
2022/07/20 03:38:06;;;;;;;;;68.00;58.75;;;;;25.69;75.57;101333.97;5048032;28;47114;-76
2022/07/20 03:40:32;;;;;;;;;66.50;57.50;;;;;25.56;76.51;101339.84;5041484;28;47216;-76
2022/07/20 03:42:57;;;;;;;;;66.25;55.75;;;;;25.55;76.79;101316.41;5022323;28;45344;-76
2022/07/20 03:45:22;;;;;;;;;67.00;57.25;;;;;25.50;77.03;101309.03;5037336;28;45345;-76
2022/07/20 03:47:48;;;;;;;;;68.00;57.75;;;;;25.46;76.54;101335.13;5043287;28;46444;-76
2022/07/20 03:50:13;;;;;;;;;67.75;58.75;;;;;25.41;77.36;101340.53;5061879;28;46622;-76
2022/07/20 03:52:39;;;;;;;;;66.75;57.00;;;;;25.34;77.94;101317.09;5056683;28;45832;-76
2022/07/20 03:55:05;;;;;;;;;66.75;57.75;;;;;25.47;77.38;101309.56;5042224;28;45309;-76
2022/07/20 03:57:30;;;;;;;;;69.00;59.25;;;;;25.49;76.95;101312.84;5055196;28;46131;-76
2022/07/20 03:59:55;;;;;;;;;67.25;57.50;;;;;25.49;77.11;101331.88;5061656;28;45328;-76
2022/07/20 04:02:21;;;;;;;;;67.25;57.00;;;;;25.41;77.79;101321.50;5049990;28;45265;-77
2022/07/20 04:04:46;;;;;;;;;67.75;59.00;;;;;25.40;77.76;101330.72;5056331;28;45355;-77
2022/07/20 04:07:12;;;;;;;;;68.25;58.25;;;;;25.42;78.38;101321.22;5055608;28;45280;-76
2022/07/20 04:09:43;;;;;;;;;65.50;58.50;;;;;25.39;77.91;101329.09;5067483;28;45530;-75
2022/07/20 04:12:10;;;;;;;;;67.75;60.50;;;;;25.39;78.31;101362.56;5057209;28;46218;-75
2022/07/20 04:14:36;;;;;;;;;66.50;57.00;;;;;25.45;78.88;101375.13;5059917;28;45473;-76
2022/07/20 04:17:02;;;;;;;;;66.00;54.25;;;;;25.45;78.53;101377.00;5061662;28;45492;-77
2022/07/20 04:19:28;;;;;;;;;67.50;56.25;;;;;25.38;78.73;101362.81;5057471;28;46619;-76
2022/07/20 04:21:55;;;;;;;;;67.00;58.75;;;;;25.40;78.95;101355.19;5065120;28;45427;-77
2022/07/20 04:24:21;;;;;;;;;67.25;57.25;;;;;25.36;79.13;101330.44;5032701;28;44715;-76
2022/07/20 04:26:46;;;;;;;;;65.75;55.00;;;;;25.38;79.32;101357.38;5033291;28;46969;-77
2022/07/20 04:29:11;;;;;;;;;64.75;53.75;;;;;25.37;79.45;101359.25;5044176;28;47941;-77
2022/07/20 04:31:37;;;;;;;;;65.50;54.75;;;;;25.37;79.93;101350.28;5061726;28;45733;-77
2022/07/20 04:34:02;;;;;;;;;64.75;53.00;;;;;25.36;80.12;101333.16;5055300;28;45707;-77
2022/07/20 04:36:28;;;;;;;;;63.75;52.25;;;;;25.41;80.70;101359.56;5038490;28;45899;-77
2022/07/20 04:38:53;;;;;;;;;65.00;52.50;;;;;25.36;80.98;101370.41;5050449;28;46810;-77
2022/07/20 04:41:18;;;;;;;;;67.00;56.75;;;;;25.54;80.69;101393.69;5069306;28;45303;-77
2022/07/20 04:43:44;;;;;;;;;60.00;48.50;;;;;25.56;80.05;101350.72;5051000;28;45263;-75
2022/07/20 04:46:09;;;;;;;;;62.50;51.75;;;;;25.53;79.79;101267.69;5035789;28;45242;-76
2022/07/20 04:48:35;;;;;;;;;63.75;54.25;;;;;25.46;80.26;101338.66;5061487;28;45486;-77
2022/07/20 04:51:00;;;;;;;;;66.75;54.50;;;;;25.42;81.19;101331.28;5069787;28;45217;-77
2022/07/20 04:53:25;;;;;;;;;64.00;55.25;;;;;25.37;81.30;101325.78;5058732;28;45297;-76
2022/07/20 04:55:51;;;;;;;;;63.75;54.25;;;;;25.40;81.03;101328.81;5040020;28;45312;-77
2022/07/20 04:58:16;;;;;;;;;63.50;50.75;;;;;25.42;81.37;101312.25;5057086;28;45261;-77
2022/07/20 05:00:42;;;;;;;;;63.00;51.75;;;;;25.41;80.81;101316.84;5070221;28;45255;-78
2022/07/20 05:03:07;;;;;;;;;60.50;48.75;;;;;25.40;81.17;101298.06;5055034;28;45299;-77
2022/07/20 05:05:32;;;;;;;;;60.75;50.50;;;;;25.38;82.15;101276.56;5057025;28;45251;-77
2022/07/20 05:07:58;;;;;;;;;63.25;52.50;;;;;25.36;81.99;101261.59;5033333;28;48261;-78
2022/07/20 05:10:23;;;;;;;;;60.75;48.50;;;;;25.34;81.86;101242.81;5061156;28;45308;-79
2022/07/20 05:12:49;;;;;;;;;57.75;47.50;;;;;25.36;80.67;101245.28;5040274;28;45685;-78
2022/07/20 05:15:14;;;;;;;;;54.75;45.50;;;;;25.33;80.73;101242.03;5068262;28;45823;-78
2022/07/20 05:17:39;;;;;;;;;53.75;45.25;;;;;25.32;80.52;101239.56;5041443;28;47408;-78
2022/07/20 05:20:05;;;;;;;;;56.00;45.75;;;;;25.18;80.28;101233.75;5057905;28;45406;-77
2022/07/20 05:22:30;;;;;;;;;54.25;44.75;;;;;25.33;80.79;101258.34;5060173;28;44632;-77
2022/07/20 05:24:56;;;;;;;;;61.00;48.50;;;;;25.32;80.04;101259.41;5036662;28;47108;-77
2022/07/20 05:27:21;;;;;;;;;57.75;47.50;;;;;25.27;79.70;101281.13;5045207;28;46986;-78
2022/07/20 05:29:48;;;;;;;;;60.00;48.75;;;;;25.25;80.35;101296.88;5043143;28;45425;-78
2022/07/20 05:32:13;;;;;;;;;58.50;46.75;;;;;25.18;80.77;101293.56;5043212;28;45313;-78
2022/07/20 05:34:38;;;;;;;;;58.00;46.00;;;;;25.15;80.56;101281.31;5061196;28;45593;-78
2022/07/20 05:37:04;;;;;;;;;57.75;46.75;;;;;25.09;81.18;101266.88;5060748;28;45339;-78
2022/07/20 05:39:29;;;;;;;;;56.50;45.50;;;;;25.08;81.04;101210.84;5061155;28;45384;-78
2022/07/20 05:41:54;;;;;;;;;55.75;46.50;;;;;25.12;80.95;101221.19;5061392;28;45308;-78
2022/07/20 05:44:20;;;;;;;;;55.50;46.25;;;;;25.07;81.08;101187.47;5061083;28;45431;-79
2022/07/20 05:46:45;;;;;;;;;58.25;47.50;;;;;25.02;80.61;101225.47;5061011;28;45427;-79
2022/07/20 05:49:10;;;;;;;;;54.75;45.50;;;;;24.97;81.01;101263.50;5061047;28;45315;-79
2022/07/20 05:51:36;;;;;;;;;53.25;44.50;;;;;24.86;81.36;101306.06;5060993;28;45170;-79
2022/07/20 05:54:01;;;;;;;;;54.75;45.00;;;;;24.82;81.91;101353.84;5060743;28;45307;-79
2022/07/20 05:56:27;;;;;;;;;51.00;42.50;;;;;24.90;81.85;101366.19;5060975;28;45694;-78
2022/07/20 05:58:53;;;;;;;;;57.00;46.75;;;;;24.83;82.71;101345.44;5061031;28;45402;-78
2022/07/20 06:01:18;;;;;;;;;54.00;43.75;;;;;24.76;82.93;101320.38;5060769;28;45470;-78
2022/07/20 06:03:43;;;;;;;;;57.75;47.00;;;;;24.77;82.99;101332.88;5050504;28;45782;-79
2022/07/20 06:06:09;;;;;;;;;58.25;47.25;;;;;24.75;83.14;101307.03;5060266;28;45338;-79
2022/07/20 06:08:36;;;;;;;;;56.00;45.50;;;;;24.78;83.28;101295.66;5060853;28;45333;-80
2022/07/20 06:11:01;;;;;;;;;54.25;44.75;;;;;24.75;82.97;101309.75;5054473;28;45504;-79
2022/07/20 06:13:27;;;;;;;;;59.50;47.25;;;;;24.70;83.70;101302.38;5046511;28;46018;-79
2022/07/20 06:15:52;;;;;;;;;53.00;44.75;;;;;24.72;83.91;101319.22;5062685;28;46488;-79
2022/07/20 06:18:17;;;;;;;;;56.50;45.50;;;;;24.71;83.18;101323.03;5060116;28;45304;-79
2022/07/20 06:20:43;;;;;;;;;54.50;44.25;;;;;24.66;82.33;101333.84;5060685;28;45220;-79
2022/07/20 06:23:08;;;;;;;;;57.25;45.75;;;;;24.71;83.18;101331.19;5059998;28;45293;-79
2022/07/20 06:25:33;;;;;;;;;56.50;45.50;;;;;24.90;82.60;101341.72;5060490;28;45430;-79
2022/07/20 06:28:00;;;;;;;;;53.75;44.75;;;;;24.90;83.05;101347.16;5060249;28;45293;-78
2022/07/20 06:30:26;;;;;;;;;54.50;45.25;;;;;24.98;82.17;101364.88;5060660;28;45234;-78
2022/07/20 06:32:52;;;;;;;;;57.50;46.00;;;;;24.80;83.09;101380.44;5060437;28;45518;-78
2022/07/20 06:35:18;;;;;;;;;53.50;44.25;;;;;24.77;82.87;101387.22;5053744;28;47388;-78
2022/07/20 06:37:43;;;;;;;;;55.25;45.50;;;;;24.73;83.12;101409.72;5060134;28;45368;-78
2022/07/20 06:40:09;;;;;;;;;52.50;44.00;;;;;24.73;83.61;101428.75;5051827;28;45419;-79
2022/07/20 06:42:35;;;;;;;;;53.25;44.25;;;;;24.75;83.78;101448.34;5041961;28;46289;-79
2022/07/20 06:45:01;;;;;;;;;49.25;41.50;;;;;24.74;83.53;101458.41;5060161;28;45242;-80
2022/07/20 06:47:26;;;;;;;;;49.75;41.50;;;;;24.79;83.74;101452.19;5059998;28;45412;-79
2022/07/20 06:49:52;;;;;;;;;50.00;41.50;;;;;24.81;83.59;101441.91;5060219;28;45371;-79
2022/07/20 06:52:17;;;;;;;;;48.00;40.75;;;;;24.80;83.03;101432.09;5053136;28;47074;-79
2022/07/20 06:54:42;;;;;;;;;48.25;40.00;;;;;24.74;82.95;101466.53;5045088;28;48278;-80
2022/07/20 06:57:08;;;;;;;;;47.75;40.25;;;;;24.73;82.66;101464.91;5041910;28;46147;-79
2022/07/20 06:59:33;;;;;;;;;46.25;38.25;;;;;24.69;83.33;101444.75;5060216;28;45406;-80
2022/07/20 07:01:59;;;;;;;;;46.50;39.25;;;;;24.63;83.17;101422.09;5059980;28;45174;-79
2022/07/20 07:04:24;;;;;;;;;46.50;39.25;;;;;24.56;82.98;101406.00;5041564;28;47050;-80
2022/07/20 07:06:49;;;;;;;;;43.25;37.25;;;;;24.56;82.98;101399.75;5046741;28;45269;-79
2022/07/20 07:09:15;;;;;;;;;43.25;37.25;;;;;24.52;82.96;101409.50;5059864;28;45225;-79
2022/07/20 07:11:40;;;;;;;;;44.75;36.25;;;;;24.49;82.62;101418.13;5059852;28;45219;-79
2022/07/20 07:14:06;;;;;;;;;40.00;35.00;;;;;24.43;82.74;101417.25;5059674;28;45321;-80
2022/07/20 07:16:32;;;;;;;;;44.50;36.75;;;;;24.40;82.23;101415.03;5056489;28;45269;-80
2022/07/20 07:18:58;;;;;;;;;44.00;37.75;;;;;24.37;82.19;101426.41;5059854;28;45632;-80
2022/07/20 07:21:23;;;;;;;;;40.75;35.50;;;;;24.28;82.68;101420.59;5059158;28;45435;-80
2022/07/20 07:23:52;;;;;;;;;36.50;32.50;;;;;24.24;82.35;101414.81;5041198;28;46743;-80
2022/07/20 07:26:20;;;;;;;;;43.25;36.00;;;;;24.26;82.66;101422.72;5059527;28;45323;-79
2022/07/20 07:28:45;;;;;;;;;34.75;31.50;;;;;24.09;82.24;101399.09;5059550;28;45307;-79
2022/07/20 07:31:11;;;;;;;;;39.25;33.50;;;;;24.11;82.30;101420.59;5041102;28;46853;-80
2022/07/20 07:33:37;;;;;;;;;37.00;33.00;;;;;24.00;83.41;101390.56;5041179;28;47294;-80
2022/07/20 07:36:03;;;;;;;;;36.25;31.00;;;;;24.03;82.78;101386.56;5041104;28;45723;-80
2022/07/20 07:38:29;;;;;;;;;34.25;30.75;;;;;23.99;83.49;101350.09;5046222;28;45387;-80
2022/07/20 07:40:54;;;;;;;;;42.00;33.25;;;;;23.87;83.11;101344.78;5060804;28;45533;-80
2022/07/20 07:43:19;;;;;;;;;35.00;32.00;;;;;23.83;82.47;101361.56;5060520;28;46438;-81
2022/07/20 07:45:44;;;;;;;;;33.00;29.50;;;;;23.81;82.74;101380.00;5056761;28;45347;-80
2022/07/20 07:48:10;;;;;;;;;37.00;33.00;;;;;23.69;82.74;101381.97;5065172;28;45323;-80
2022/07/20 07:50:40;;;;;;;;;33.50;31.25;;;;;23.67;83.18;101373.25;5056722;28;45378;-80
2022/07/20 07:53:07;;;;;;;;;33.50;30.75;;;;;23.57;81.83;101355.78;5064290;28;45610;-80
2022/07/20 07:55:33;;;;;;;;;27.50;25.75;;;;;23.49;81.82;101347.22;5062334;28;45358;-82
2022/07/20 07:57:59;;;;;;;;;28.33;28.00;;;;;23.45;82.07;101361.28;5040854;28;45347;-82
2022/07/20 08:00:24;;;;;;;;;32.67;29.33;;;;;23.36;81.44;101357.28;5060172;28;45505;-80
2022/07/20 08:02:50;;;;;;;;;28.00;27.75;;;;;23.28;82.17;101333.28;5058929;28;46678;-80
2022/07/20 08:05:15;;;;;;;;;34.75;29.75;;;;;23.32;82.01;101335.25;5059241;28;45373;-79
2022/07/20 08:07:40;;;;;;;;;30.00;26.33;;;;;23.24;82.03;101324.84;5058653;28;45362;-79
2022/07/20 08:10:08;;;;;;;;;29.00;27.75;;;;;23.27;82.31;101337.91;5058588;28;45281;-79
2022/07/20 08:12:33;;;;;;;;;26.00;25.00;;;;;23.25;83.14;101366.34;5040883;28;47843;-79
2022/07/20 08:14:59;;;;;;;;;28.50;27.75;;;;;23.31;83.68;101384.31;5040775;28;45330;-79
2022/07/20 08:17:24;;;;;;;;;29.33;28.33;;;;;23.42;84.05;101390.78;5062513;28;45284;-79
2022/07/20 08:19:50;;;;;;;;;31.25;28.00;;;;;23.53;83.23;101391.78;5058596;28;45382;-79
2022/07/20 08:22:15;;;;;;;;;28.25;28.00;;;;;23.61;83.02;101414.97;5058609;28;46236;-79
2022/07/20 08:24:40;;;;;;;;;31.00;29.33;;;;;23.69;83.54;101428.09;5052783;28;45371;-80
2022/07/20 08:27:06;;;;;;;;;31.33;28.00;;;;;23.69;83.52;101433.53;5044841;28;45284;-79
2022/07/20 08:29:31;;;;;;;;;26.00;24.33;;;;;23.75;83.21;101443.41;5040799;28;47023;-80
2022/07/20 08:31:56;;;;;;;;;24.67;23.33;;;;;23.76;82.93;101441.53;5040436;28;47292;-80
2022/07/20 08:34:22;;;;;;;;;23.33;23.00;;;;;23.73;82.59;101440.09;5058727;28;45415;-80
2022/07/20 08:36:47;;;;;;;;;25.67;23.00;;;;;23.84;83.32;101438.38;5045432;28;45511;-80
2022/07/20 08:39:12;;;;;;;;;26.33;26.00;;;;;23.81;82.67;101423.44;5057925;28;45343;-80
2022/07/20 08:41:39;;;;;;;;;24.33;23.33;;;;;23.83;82.14;101434.03;5052266;28;47162;-80
2022/07/20 08:44:04;;;;;;;;;28.67;27.67;;;;;23.83;82.23;101437.56;5044209;28;46383;-80
2022/07/20 08:46:33;;;;;;;;;25.67;24.67;;;;;23.85;82.26;101428.34;5062369;28;45472;-80
2022/07/20 08:48:59;;;;;;;;;23.33;23.33;;;;;23.92;82.25;101426.28;5061826;28;45280;-80
2022/07/20 08:51:24;;;;;;;;;26.00;26.00;;;;;23.94;81.96;101432.28;5028215;28;48466;-80
2022/07/20 08:53:50;;;;;;;;;28.33;25.00;;;;;23.96;82.26;101441.84;5034835;28;45955;-80
2022/07/20 08:56:16;;;;;;;;;25.00;25.00;;;;;24.03;81.62;101436.22;5063668;28;45241;-80
2022/07/20 08:58:41;;;;;;;;;25.00;23.67;;;;;23.95;81.12;101418.47;5063016;28;45284;-80
2022/07/20 09:01:12;;;;;;;;;26.67;25.67;;;;;23.91;81.20;101413.81;5062992;28;45279;-82
2022/07/20 09:03:41;;;;;;;;;25.67;24.33;;;;;23.86;81.49;101395.53;5046460;28;45529;-81
2022/07/20 09:06:07;;;;;;;;;24.67;24.67;;;;;23.96;80.99;101394.88;5044447;28;45429;-81
2022/07/20 09:08:33;;;;;;;;;28.00;27.67;;;;;23.99;81.41;101388.94;5044448;28;45479;-82
2022/07/20 09:11:01;;;;;;;;;32.75;29.75;;;;;24.13;82.11;101394.88;5061362;28;46658;-81
2022/07/20 09:13:32;;;;;;;;;27.67;27.67;;;;;24.22;81.70;101389.84;5062011;28;45566;-81
2022/07/20 09:15:58;;;;;;;;;30.75;27.75;;;;;24.36;81.19;101384.84;5046583;28;45395;-81
2022/07/20 09:18:25;;;;;;;;;28.25;27.25;;;;;24.56;81.54;101387.00;5061787;28;45389;-81
2022/07/20 09:20:53;;;;;;;;;26.67;24.33;;;;;24.69;81.04;101393.94;5043845;28;47505;-81
2022/07/20 09:23:22;;;;;;;;;27.67;27.67;;;;;24.78;81.07;101394.28;5061670;28;45338;-81
2022/07/20 09:25:55;;;;;;;;;28.50;27.25;;;;;24.83;80.69;101398.97;5061820;28;45333;-81
2022/07/20 09:28:21;;;;;;;;;29.00;27.00;;;;;24.85;80.04;101399.56;5047480;28;45457;-81
2022/07/20 09:30:55;;;;;;;;;28.00;26.00;;;;;24.88;79.00;101395.53;5062400;28;45245;-80
2022/07/20 09:33:31;;;;;;;;;27.33;27.33;;;;;24.87;78.31;101402.00;5062135;28;45427;-80
2022/07/20 09:36:02;;;;;;;;;24.67;24.67;;;;;24.89;78.16;101414.28;5035098;28;45293;-78
2022/07/20 09:38:36;;;;;;;;;28.00;25.00;;;;;24.77;76.94;101421.72;5056944;28;45588;-78
2022/07/20 09:41:20;;;;;;;;;29.33;28.67;;;;;24.69;78.15;101421.09;5053475;28;46348;-78
2022/07/20 09:43:45;;;;;;;;;28.67;28.00;;;;;24.66;78.12;101421.59;5051566;28;45505;-78
2022/07/20 09:46:15;;;;;;;;;28.67;27.67;;;;;24.69;77.90;101429.25;5045553;28;45353;-79
2022/07/20 09:48:45;;;;;;;;;26.33;25.00;;;;;24.59;77.97;101426.41;5043269;28;45974;-78
2022/07/20 09:51:30;;;;;;;;;29.67;28.67;;;;;24.57;77.90;101445.69;5050295;28;48457;-78
2022/07/20 09:54:09;;;;;;;;;30.67;28.00;;;;;24.52;78.16;101453.78;5068424;28;45302;-77
2022/07/20 09:56:38;;;;;;;;;28.00;27.67;;;;;24.42;78.01;101469.94;5068700;28;45418;-77
2022/07/20 09:59:06;;;;;;;;;27.33;26.33;;;;;24.34;78.65;101476.63;5064372;28;45435;-78
2022/07/20 10:01:34;;;;;;;;;28.33;27.33;;;;;24.26;78.61;101467.00;5033842;28;47359;-77
2022/07/20 10:04:04;;;;;;;;;28.00;25.00;;;;;24.19;79.01;101469.88;5035011;28;45301;-77
2022/07/20 10:06:30;;;;;;;;;28.67;27.33;;;;;24.05;78.34;101469.38;5053856;28;44734;-77
2022/07/20 10:08:56;;;;;;;;;30.00;26.67;;;;;23.96;78.26;101476.28;5067635;28;45339;-77
2022/07/20 10:11:24;;;;;;;;;25.33;24.33;;;;;23.92;78.86;101467.84;5060270;28;45372;-78
2022/07/20 10:13:51;;;;;;;;;28.67;26.67;;;;;23.83;79.13;101451.13;5042617;28;45344;-78
2022/07/20 10:16:47;;;;;;;;;30.33;28.33;;;;;23.80;79.73;101453.53;5042239;28;45387;-81
2022/07/20 10:19:13;;;;;;;;;28.33;27.33;;;;;23.73;80.15;101469.94;5060699;28;45360;-81
2022/07/20 10:21:42;;;;;;;;;32.33;29.33;;;;;23.70;82.19;101478.56;5060555;28;45368;-82
2022/07/20 10:24:25;;;;;;;;;34.00;30.00;;;;;23.64;82.55;101480.38;5042865;28;45384;-81
2022/07/20 10:27:02;;;;;;;;;29.00;28.00;;;;;23.56;82.01;101500.59;5061946;28;45340;-81
2022/07/20 10:29:39;;;;;;;;;30.67;29.67;;;;;23.49;82.27;101510.78;5045671;28;47125;-81
2022/07/20 10:32:14;;;;;;;;;27.67;27.00;;;;;23.43;81.90;101519.88;5061267;28;45516;-81
2022/07/20 10:34:39;;;;;;;;;31.33;27.67;;;;;23.41;81.67;101517.41;5049378;28;45241;-80
2022/07/20 10:37:27;;;;;;;;;29.33;28.33;;;;;23.28;81.93;101491.38;5060577;28;45272;-80
2022/07/20 10:40:12;;;;;;;;;25.00;22.00;;;;;23.27;81.75;101486.19;5060181;28;45253;-81
2022/07/20 10:42:39;;;;;;;;;21.00;21.00;;;;;23.22;81.73;101459.00;5041861;28;47785;-81
2022/07/20 10:45:16;;;;;;;;;19.67;19.67;;;;;23.18;81.73;101450.53;5050340;28;45344;-82
2022/07/20 10:47:46;;;;;;;;;28.67;27.33;;;;;23.19;81.43;101453.00;5038749;28;45522;-82
2022/07/20 10:50:18;;;;;;;;;30.00;25.67;;;;;23.12;81.71;101462.31;5041822;28;45962;-82
2022/07/20 10:52:48;;;;;;;;;24.33;22.67;;;;;23.03;82.60;101454.59;5041443;28;47106;-82
2022/07/20 10:55:35;;;;;;;;;20.00;19.33;;;;;23.02;82.91;101474.59;5030980;28;45666;-82
2022/07/20 10:58:17;;;;;;;;;22.00;21.67;;;;;22.98;82.60;101497.84;5060098;28;45280;-83
2022/07/20 11:00:48;;;;;;;;;17.67;17.67;;;;;22.94;82.28;101489.38;5053616;28;47492;-81
2022/07/20 11:03:18;;;;;;;;;20.00;18.33;;;;;22.88;82.70;101482.22;5027192;28;48259;-83
2022/07/20 11:05:45;;;;;;;;;15.33;15.33;;;;;22.83;83.48;101472.09;5056877;28;45427;-83
2022/07/20 11:08:12;;;;;;;;;18.33;17.33;;;;;22.80;83.14;101467.13;5041944;28;45345;-83
2022/07/20 11:10:39;;;;;;;;;18.67;18.67;;;;;22.79;83.82;101470.91;5041763;28;46396;-82
2022/07/20 11:13:06;;;;;;;;;20.00;18.33;;;;;22.70;83.25;101516.53;5059547;28;45732;-82